Time;durP1;ratioP1;P1;durP2;ratioP2;P2;SDS_P1;SDS_P2;PMS_P1;PMS_P2;Temp;Humidity;BMP_temperature;BMP_pressure;BME280_temperature;BME280_humidity;BME280_pressure;Samples;Min_cycle;Max_cycle;Signal;HPM_P1;HPM_P2
2023/04/25 00:02:16;;;;;;;;;;;;;;;7.50;100.00;101130.50;5237532;28;20408;-73
2023/04/25 00:04:48;;;;;;;;;;;;;;;7.44;100.00;101130.22;5228405;28;19913;-73
2023/04/25 00:07:19;;;;;;;;;;;;;;;7.47;100.00;101125.41;5226323;28;19912;-73
2023/04/25 00:09:50;;;;;;;;;;;;;;;7.46;100.00;101129.06;5226863;28;20353;-72
2023/04/25 00:12:22;;;;;;;;;;;;;;;7.39;100.00;101127.97;5240707;28;20361;-72
2023/04/25 00:14:53;;;;;;;;;;;;;;;7.38;100.00;101126.28;5247518;28;20003;-73
2023/04/25 00:17:24;;;;;;;;;;;;;;;7.36;100.00;101122.88;5233249;28;20185;-73
2023/04/25 00:19:55;;;;;;;;;;;;;;;7.39;100.00;101122.63;5246731;28;19913;-73
2023/04/25 00:22:26;;;;;;;;;;;;;;;7.38;100.00;101128.06;5247046;28;20270;-73
2023/04/25 00:24:59;;;;;;;;;;;;;;;7.34;100.00;101127.53;5247851;28;19919;-73
2023/04/25 00:27:30;;;;;;;;;;;;;;;7.40;100.00;101131.47;5246509;28;19913;-72
2023/04/25 00:30:00;;;;;;;;;;;;;;;7.37;100.00;101132.56;5245865;28;19969;-72
2023/04/25 00:32:31;;;;;;;;;;;;;;;7.33;100.00;101128.53;5247223;28;19939;-72
2023/04/25 00:35:01;;;;;;;;;;;;;;;7.31;100.00;101127.81;5247217;28;20380;-72
2023/04/25 00:37:31;;;;;;;;;;;;;;;7.29;100.00;101140.44;5246365;28;20019;-73
2023/04/25 00:40:04;;;;;;;;;;;;;;;7.25;100.00;101145.22;5249478;28;19916;-73
2023/04/25 00:42:37;;;;;;;;;;;;;;;7.22;100.00;101133.97;5251173;28;20292;-73
2023/04/25 00:45:09;;;;;;;;;;;;;;;7.20;100.00;101138.59;5248751;28;20006;-72
2023/04/25 00:47:40;;;;;;;;;;;;;;;7.19;100.00;101136.91;5246653;28;19920;-73
2023/04/25 00:50:11;;;;;;;;;;;;;;;7.15;100.00;101139.00;5246230;28;20377;-72
2023/04/25 00:52:44;;;;;;;;;;;;;;;7.12;100.00;101133.94;5246772;28;20003;-73
2023/04/25 00:55:15;;;;;;;;;;;;;;;7.12;100.00;101135.75;5246187;28;19912;-73
2023/04/25 00:57:49;;;;;;;;;;;;;;;7.11;100.00;101136.75;5246245;28;19920;-73
2023/04/25 01:00:20;;;;;;;;;;;;;;;7.09;100.00;101136.91;5247043;28;19919;-72
2023/04/25 01:02:50;;;;;;;;;;;;;;;7.12;100.00;101147.28;5247663;28;20019;-72
2023/04/25 01:05:21;;;;;;;;;;;;;;;7.14;100.00;101144.50;5247895;28;19912;-72
2023/04/25 01:07:52;;;;;;;;;;;;;;;7.18;100.00;101141.41;5245801;28;19913;-72
2023/04/25 01:10:22;;;;;;;;;;;;;;;7.19;100.00;101137.75;5247178;28;20352;-72
2023/04/25 01:13:09;;;;;;;;;;;;;;;7.18;100.00;101141.41;5247424;28;19916;-72
2023/04/25 01:15:48;;;;;;;;;;;;;;;7.24;100.00;101140.03;5244550;28;19985;-73
2023/04/25 01:18:29;;;;;;;;;;;;;;;7.17;100.00;101145.03;5236325;28;20377;-72
2023/04/25 01:21:12;;;;;;;;;;;;;;;7.16;100.00;101146.03;5246680;28;20003;-72
2023/04/25 01:23:43;;;;;;;;;;;;;;;7.19;100.00;101148.44;5245765;28;19934;-72
2023/04/25 01:26:13;;;;;;;;;;;;;;;7.26;100.00;101143.38;5246868;28;19912;-72
2023/04/25 01:28:45;;;;;;;;;;;;;;;7.24;100.00;101148.88;5244098;28;19916;-72
2023/04/25 01:31:15;;;;;;;;;;;;;;;7.25;100.00;101147.88;5245438;28;19908;-72
2023/04/25 01:33:48;;;;;;;;;;;;;;;7.24;100.00;101146.19;5246626;28;20369;-72
2023/04/25 01:36:18;;;;;;;;;;;;;;;7.21;100.00;101156.28;5249565;28;19973;-72
2023/04/25 01:38:49;;;;;;;;;;;;;;;7.24;100.00;101156.03;5247535;28;20315;-73
2023/04/25 01:41:20;;;;;;;;;;;;;;;7.24;100.00;101153.38;5246814;28;20011;-72
2023/04/25 01:43:53;;;;;;;;;;;;;;;7.24;100.00;101161.38;5247149;28;20466;-72
2023/04/25 01:46:24;;;;;;;;;;;;;;;7.21;100.00;101158.97;5243871;28;19916;-72
2023/04/25 01:48:54;;;;;;;;;;;;;;;7.20;100.00;101155.44;5245052;28;19919;-72
2023/04/25 01:51:25;;;;;;;;;;;;;;;7.16;100.00;101159.38;5245747;28;19977;-72
2023/04/25 01:53:56;;;;;;;;;;;;;;;7.12;100.00;101157.94;5246612;28;20007;-72
2023/04/25 01:56:42;;;;;;;;;;;;;;;7.13;100.00;101156.13;5245448;28;19916;-72
2023/04/25 01:59:15;;;;;;;;;;;;;;;7.07;100.00;101165.50;5246447;28;20380;-72
2023/04/25 02:01:46;;;;;;;;;;;;;;;7.05;100.00;101170.16;5244785;28;19919;-72
2023/04/25 02:04:16;;;;;;;;;;;;;;;6.98;100.00;101169.88;5233946;28;20476;-72
2023/04/25 02:06:47;;;;;;;;;;;;;;;7.00;100.00;101173.22;5238320;28;19967;-72
2023/04/25 02:09:17;;;;;;;;;;;;;;;7.00;100.00;101175.91;5226946;28;19912;-72
2023/04/25 02:11:48;;;;;;;;;;;;;;;6.99;100.00;101178.72;5226171;28;20292;-73
2023/04/25 02:14:19;;;;;;;;;;;;;;;6.94;100.00;101176.44;5227692;28;19917;-73
2023/04/25 02:16:53;;;;;;;;;;;;;;;6.93;100.00;101169.41;5244609;28;19916;-73
2023/04/25 02:19:24;;;;;;;;;;;;;;;6.91;100.00;101165.19;5245156;28;19912;-72
2023/04/25 02:21:56;;;;;;;;;;;;;;;6.90;100.00;101175.00;5245538;28;19954;-72
2023/04/25 02:24:34;;;;;;;;;;;;;;;6.91;100.00;101175.84;5245501;28;19914;-73
2023/04/25 02:27:05;;;;;;;;;;;;;;;6.90;100.00;101183.00;5242856;28;19917;-72
2023/04/25 02:29:35;;;;;;;;;;;;;;;6.90;100.00;101180.34;5244169;28;20229;-73
2023/04/25 02:32:06;;;;;;;;;;;;;;;6.91;100.00;101174.03;5245712;28;19920;-72
2023/04/25 02:34:37;;;;;;;;;;;;;;;6.87;100.00;101182.44;5245373;28;20305;-73
2023/04/25 02:37:07;;;;;;;;;;;;;;;6.88;100.00;101185.00;5244467;28;20273;-72
2023/04/25 02:39:38;;;;;;;;;;;;;;;6.92;100.00;101182.88;5244957;28;19916;-72
2023/04/25 02:42:08;;;;;;;;;;;;;;;6.97;100.00;101184.16;5245177;28;19912;-72
2023/04/25 02:44:38;;;;;;;;;;;;;;;6.92;100.00;101175.72;5245321;28;19917;-72
2023/04/25 02:47:09;;;;;;;;;;;;;;;6.91;100.00;101190.03;5243531;28;20384;-72
2023/04/25 02:49:39;;;;;;;;;;;;;;;6.93;100.00;101184.59;5244595;28;19916;-72
2023/04/25 02:52:09;;;;;;;;;;;;;;;6.89;100.00;101186.66;5244968;28;19919;-72
2023/04/25 02:54:40;;;;;;;;;;;;;;;6.86;100.00;101184.25;5245500;28;19917;-72
2023/04/25 02:57:10;;;;;;;;;;;;;;;6.86;100.00;101189.59;5242455;28;19924;-73
2023/04/25 02:59:41;;;;;;;;;;;;;;;6.87;100.00;101180.59;5244332;28;19916;-72
2023/04/25 03:02:11;;;;;;;;;;;;;;;6.84;100.00;101194.22;5235837;28;20332;-72
2023/04/25 03:04:41;;;;;;;;;;;;;;;6.79;100.00;101188.44;5225385;28;19920;-72
2023/04/25 03:07:12;;;;;;;;;;;;;;;6.74;100.00;101185.34;5223736;28;19920;-73
2023/04/25 03:09:42;;;;;;;;;;;;;;;6.66;100.00;101188.66;5228741;28;19919;-72
2023/04/25 03:12:13;;;;;;;;;;;;;;;6.60;100.00;101194.53;5233845;28;19919;-73
2023/04/25 03:14:43;;;;;;;;;;;;;;;6.52;100.00;101196.16;5224920;28;19913;-72
2023/04/25 03:17:13;;;;;;;;;;;;;;;6.46;100.00;101194.84;5235857;28;19956;-72
2023/04/25 03:19:44;;;;;;;;;;;;;;;6.39;100.00;101201.69;5243917;28;19918;-72
2023/04/25 03:22:14;;;;;;;;;;;;;;;6.31;100.00;101194.34;5243221;28;20316;-72
2023/04/25 03:24:45;;;;;;;;;;;;;;;6.23;100.00;101192.34;5244954;28;19917;-72
2023/04/25 03:27:15;;;;;;;;;;;;;;;6.25;100.00;101194.03;5242102;28;19919;-72
2023/04/25 03:29:46;;;;;;;;;;;;;;;6.22;100.00;101185.34;5244375;28;20297;-72
2023/04/25 03:32:16;;;;;;;;;;;;;;;6.19;100.00;101192.72;5243369;28;20364;-72
2023/04/25 03:34:46;;;;;;;;;;;;;;;6.15;100.00;101183.31;5244718;28;19912;-72
2023/04/25 03:37:17;;;;;;;;;;;;;;;6.08;100.00;101188.31;5243445;28;19924;-72
2023/04/25 03:39:47;;;;;;;;;;;;;;;6.08;100.00;101198.13;5243981;28;19984;-72
2023/04/25 03:42:17;;;;;;;;;;;;;;;6.07;100.00;101196.41;5244359;28;19912;-72
2023/04/25 03:44:48;;;;;;;;;;;;;;;6.00;100.00;101200.56;5244531;28;19920;-73
2023/04/25 03:47:19;;;;;;;;;;;;;;;5.97;100.00;101201.66;5243004;28;20010;-72
2023/04/25 03:49:51;;;;;;;;;;;;;;;5.95;100.00;101199.13;5244230;28;20357;-72
2023/04/25 03:52:22;;;;;;;;;;;;;;;5.91;100.00;101202.13;5244058;28;19924;-72
2023/04/25 03:54:52;;;;;;;;;;;;;;;5.91;100.00;101200.34;5243716;28;20288;-72
2023/04/25 03:57:22;;;;;;;;;;;;;;;5.92;100.00;101203.84;5242887;28;20503;-72
2023/04/25 03:59:53;;;;;;;;;;;;;;;5.92;100.00;101202.06;5242216;28;20373;-71
2023/04/25 04:02:23;;;;;;;;;;;;;;;5.93;100.00;101200.25;5244424;28;20300;-72
2023/04/25 04:04:53;;;;;;;;;;;;;;;5.99;100.00;101204.22;5244082;28;19912;-72
2023/04/25 04:07:24;;;;;;;;;;;;;;;6.02;100.00;101201.28;5243146;28;19912;-73
2023/04/25 04:09:54;;;;;;;;;;;;;;;6.05;100.00;101209.03;5243925;28;20050;-73
2023/04/25 04:12:24;;;;;;;;;;;;;;;6.03;100.00;101208.31;5244924;28;19919;-72
2023/04/25 04:14:55;;;;;;;;;;;;;;;6.06;100.00;101216.03;5244681;28;19912;-72
2023/04/25 04:17:25;;;;;;;;;;;;;;;6.10;100.00;101222.78;5241976;28;20010;-73
2023/04/25 04:19:56;;;;;;;;;;;;;;;6.12;100.00;101211.03;5242799;28;19912;-72
2023/04/25 04:22:29;;;;;;;;;;;;;;;6.16;100.00;101215.13;5243176;28;19939;-72
2023/04/25 04:24:59;;;;;;;;;;;;;;;6.19;100.00;101217.53;5244435;28;19916;-72
2023/04/25 04:27:30;;;;;;;;;;;;;;;6.20;100.00;101218.38;5242918;28;19965;-72
2023/04/25 04:30:02;;;;;;;;;;;;;;;6.23;100.00;101215.47;5244925;28;19920;-72
2023/04/25 04:32:34;;;;;;;;;;;;;;;6.23;100.00;101221.66;5246584;28;20015;-72
2023/04/25 04:35:06;;;;;;;;;;;;;;;6.23;100.00;101221.66;5247836;28;20370;-72
2023/04/25 04:37:37;;;;;;;;;;;;;;;6.20;100.00;101226.38;5247011;28;20373;-73
2023/04/25 04:40:07;;;;;;;;;;;;;;;6.19;100.00;101236.19;5247599;28;19985;-72
2023/04/25 04:42:38;;;;;;;;;;;;;;;6.20;100.00;101231.72;5247689;28;19947;-72
2023/04/25 04:45:09;;;;;;;;;;;;;;;6.23;100.00;101228.78;5247068;28;19967;-72
2023/04/25 04:47:40;;;;;;;;;;;;;;;6.22;100.00;101238.63;5245347;28;19912;-72
2023/04/25 04:50:10;;;;;;;;;;;;;;;6.25;100.00;101245.50;5249204;28;19916;-72
2023/04/25 04:52:41;;;;;;;;;;;;;;;6.25;100.00;101249.97;5251239;28;19913;-72
2023/04/25 04:55:11;;;;;;;;;;;;;;;6.21;100.00;101260.88;5248806;28;19912;-72
2023/04/25 04:57:42;;;;;;;;;;;;;;;6.26;100.00;101263.16;5246894;28;19924;-72
2023/04/25 05:00:12;;;;;;;;;;;;;;;6.28;100.00;101263.91;5246257;28;19919;-72
2023/04/25 05:02:43;;;;;;;;;;;;;;;6.28;100.00;101258.56;5250468;28;20389;-72
2023/04/25 05:05:13;;;;;;;;;;;;;;;6.28;100.00;101263.91;5253919;28;19964;-72
2023/04/25 05:07:44;;;;;;;;;;;;;;;6.29;100.00;101270.91;5249051;28;20015;-72
2023/04/25 05:10:14;;;;;;;;;;;;;;;6.30;100.00;101269.09;5249562;28;19962;-72
2023/04/25 05:12:44;;;;;;;;;;;;;;;6.37;100.00;101268.44;5248485;28;19983;-73
2023/04/25 05:15:15;;;;;;;;;;;;;;;6.37;100.00;101273.75;5246951;28;19912;-73
2023/04/25 05:17:45;;;;;;;;;;;;;;;6.38;100.00;101275.47;5246158;28;19960;-72
2023/04/25 05:20:18;;;;;;;;;;;;;;;6.41;100.00;101275.19;5245942;28;20269;-72
2023/04/25 05:22:48;;;;;;;;;;;;;;;6.45;100.00;101284.63;5247124;28;19913;-72
2023/04/25 05:25:19;;;;;;;;;;;;;;;6.47;100.00;101296.00;5247102;28;19912;-72
2023/04/25 05:27:50;;;;;;;;;;;;;;;6.46;100.00;101296.97;5245801;28;19982;-72
2023/04/25 05:30:21;;;;;;;;;;;;;;;6.49;100.00;101299.41;5245861;28;19919;-72
2023/04/25 05:32:51;;;;;;;;;;;;;;;6.53;100.00;101296.50;5246965;28;19912;-72
2023/04/25 05:35:22;;;;;;;;;;;;;;;6.54;100.00;101300.84;5246983;28;20368;-72
2023/04/25 05:37:52;;;;;;;;;;;;;;;6.56;100.00;101305.06;5244267;28;19917;-72
2023/04/25 05:40:22;;;;;;;;;;;;;;;6.62;100.00;101301.88;5246484;28;19923;-72
2023/04/25 05:42:53;;;;;;;;;;;;;;;6.66;100.00;101300.63;5245779;28;19916;-72
2023/04/25 05:45:23;;;;;;;;;;;;;;;6.69;100.00;101297.72;5245786;28;19921;-72
2023/04/25 05:47:54;;;;;;;;;;;;;;;6.78;100.00;101316.56;5245212;28;19995;-72
2023/04/25 05:50:24;;;;;;;;;;;;;;;6.87;100.00;101319.28;5246089;28;19999;-72
2023/04/25 05:52:54;;;;;;;;;;;;;;;6.95;100.00;101324.81;5246270;28;19920;-72
2023/04/25 05:55:25;;;;;;;;;;;;;;;7.01;100.00;101320.78;5245934;28;20412;-72
2023/04/25 05:57:55;;;;;;;;;;;;;;;7.04;100.00;101320.53;5245080;28;19919;-72
2023/04/25 06:00:35;;;;;;;;;;;;;;;7.06;100.00;101325.72;5245867;28;19958;-72
2023/04/25 06:03:07;;;;;;;;;;;;;;;7.04;100.00;101327.69;5246333;28;20296;-72
2023/04/25 06:05:38;;;;;;;;;;;;;;;7.04;100.00;101320.53;5245829;28;19913;-72
2023/04/25 06:08:09;;;;;;;;;;;;;;;7.11;100.00;101324.34;5244929;28;20069;-72
2023/04/25 06:10:39;;;;;;;;;;;;;;;7.18;100.00;101333.53;5245916;28;20355;-72
2023/04/25 06:13:09;;;;;;;;;;;;;;;7.29;100.00;101337.94;5244844;28;19916;-73
2023/04/25 06:15:40;;;;;;;;;;;;;;;7.28;100.00;101333.59;5245101;28;19916;-73
2023/04/25 06:18:10;;;;;;;;;;;;;;;7.30;100.00;101336.97;5237157;28;19913;-72
2023/04/25 06:20:41;;;;;;;;;;;;;;;7.31;100.00;101343.13;5240384;28;19924;-72
2023/04/25 06:23:11;;;;;;;;;;;;;;;7.24;100.00;101341.00;5236146;28;19917;-72
2023/04/25 06:25:41;;;;;;;;;;;;;;;7.23;100.00;101344.66;5241933;28;19916;-72
2023/04/25 06:28:12;;;;;;;;;;;;;;;7.21;100.00;101349.28;5238536;28;19966;-72
2023/04/25 06:30:42;;;;;;;;;;;;;;;7.26;100.00;101355.06;5237582;28;19913;-72
2023/04/25 06:33:13;;;;;;;;;;;;;;;7.35;100.00;101347.25;5233277;28;19916;-72
2023/04/25 06:35:43;;;;;;;;;;;;;;;7.40;100.00;101359.22;5231652;28;19916;-72
2023/04/25 06:38:13;;;;;;;;;;;;;;;7.37;100.00;101355.94;5243179;28;19918;-72
2023/04/25 06:40:44;;;;;;;;;;;;;;;7.39;100.00;101359.34;5226257;28;19913;-72
2023/04/25 06:43:15;;;;;;;;;;;;;;;7.41;100.00;101360.88;5237719;28;19955;-72
2023/04/25 06:45:45;;;;;;;;;;;;;;;7.45;100.00;101364.16;5225395;28;19913;-72
2023/04/25 06:48:15;;;;;;;;;;;;;;;7.53;100.00;101372.34;5224921;28;20387;-72
2023/04/25 06:50:46;;;;;;;;;;;;;;;7.59;100.00;101363.78;5226558;28;19916;-72
2023/04/25 06:53:16;;;;;;;;;;;;;;;7.67;100.00;101366.63;5228669;28;20000;-72
2023/04/25 06:55:46;;;;;;;;;;;;;;;7.77;100.00;101372.84;5224828;28;19921;-72
2023/04/25 06:58:17;;;;;;;;;;;;;;;7.89;100.00;101378.09;5229025;28;19913;-72
2023/04/25 07:00:48;;;;;;;;;;;;;;;8.02;100.00;101382.19;5244844;28;20347;-72
2023/04/25 07:03:18;;;;;;;;;;;;;;;8.15;100.00;101387.31;5239522;28;19956;-73
2023/04/25 07:05:48;;;;;;;;;;;;;;;8.25;100.00;101382.81;5224854;28;19971;-73
2023/04/25 07:08:19;;;;;;;;;;;;;;;8.37;100.00;101386.25;5224061;28;19916;-73
2023/04/25 07:10:50;;;;;;;;;;;;;;;8.47;100.00;101394.28;5224750;28;20007;-72
2023/04/25 07:13:20;;;;;;;;;;;;;;;8.68;100.00;101388.78;5223812;28;19999;-73
2023/04/25 07:15:50;;;;;;;;;;;;;;;8.75;100.00;101395.28;5238026;28;19916;-73
2023/04/25 07:18:21;;;;;;;;;;;;;;;8.77;100.00;101398.66;5243885;28;19913;-72
2023/04/25 07:20:51;;;;;;;;;;;;;;;8.57;100.00;101404.00;5244216;28;19920;-72
2023/04/25 07:23:22;;;;;;;;;;;;;;;8.37;100.00;101402.28;5243518;28;19969;-72
2023/04/25 07:25:52;;;;;;;;;;;;;;;8.35;100.00;101404.22;5244972;28;20391;-73
2023/04/25 07:28:22;;;;;;;;;;;;;;;8.32;100.00;101405.34;5242366;28;19935;-73
2023/04/25 07:30:53;;;;;;;;;;;;;;;8.31;100.00;101413.50;5244017;28;19919;-72
2023/04/25 07:33:23;;;;;;;;;;;;;;;8.34;100.00;101409.72;5244557;28;20445;-73
2023/04/25 07:35:54;;;;;;;;;;;;;;;8.42;100.00;101409.88;5244560;28;19924;-73
2023/04/25 07:38:25;;;;;;;;;;;;;;;8.46;100.00;101417.50;5242233;28;20296;-72
2023/04/25 07:40:55;;;;;;;;;;;;;;;8.48;100.00;101414.69;5244320;28;19913;-73
2023/04/25 07:43:25;;;;;;;;;;;;;;;8.50;100.00;101410.06;5243733;28;19919;-73
2023/04/25 07:45:56;;;;;;;;;;;;;;;8.56;100.00;101410.34;5244168;28;19916;-73
2023/04/25 07:48:27;;;;;;;;;;;;;;;8.53;100.00;101421.31;5243300;28;19957;-72
2023/04/25 07:50:57;;;;;;;;;;;;;;;8.52;100.00;101414.25;5244507;28;19912;-72
2023/04/25 07:53:28;;;;;;;;;;;;;;;8.50;100.00;101432.28;5244200;28;19935;-73
2023/04/25 07:55:58;;;;;;;;;;;;;;;8.58;100.00;101431.56;5244300;28;19963;-72
2023/04/25 07:58:28;;;;;;;;;;;;;;;8.62;100.00;101426.81;5243143;28;19916;-73
2023/04/25 08:00:59;;;;;;;;;;;;;;;8.62;100.00;101434.81;5244328;28;19912;-73
2023/04/25 08:03:29;;;;;;;;;;;;;;;8.77;100.00;101436.09;5244581;28;19920;-73
2023/04/25 08:06:00;;;;;;;;;;;;;;;9.05;100.00;101440.63;5248180;28;19912;-73
2023/04/25 08:08:30;;;;;;;;;;;;;;;9.54;100.00;101435.19;5249123;28;20001;-73
2023/04/25 08:11:00;;;;;;;;;;;;;;;9.83;100.00;101446.63;5248462;28;19920;-72
2023/04/25 08:13:31;;;;;;;;;;;;;;;10.23;100.00;101458.03;5248281;28;19913;-73
2023/04/25 08:16:01;;;;;;;;;;;;;;;10.22;100.00;101459.88;5248308;28;19917;-73
2023/04/25 08:18:31;;;;;;;;;;;;;;;10.28;100.00;101462.00;5247538;28;19966;-73
2023/04/25 08:21:02;;;;;;;;;;;;;;;11.21;100.00;101461.75;5247730;28;19970;-73
2023/04/25 08:23:32;;;;;;;;;;;;;;;11.46;100.00;101463.63;5247614;28;19919;-73
2023/04/25 08:26:04;;;;;;;;;;;;;;;11.47;100.00;101467.16;5248397;28;20011;-73
2023/04/25 08:28:34;;;;;;;;;;;;;;;11.47;100.00;101470.69;5247204;28;19948;-73
2023/04/25 08:31:05;;;;;;;;;;;;;;;11.67;100.00;101477.53;5247554;28;19989;-73
2023/04/25 08:33:36;;;;;;;;;;;;;;;11.43;100.00;101480.06;5246515;28;19912;-73
2023/04/25 08:36:06;;;;;;;;;;;;;;;11.31;100.00;101486.69;5246800;28;19924;-73
2023/04/25 08:38:37;;;;;;;;;;;;;;;11.35;100.00;101496.97;5247102;28;19912;-73
2023/04/25 08:41:07;;;;;;;;;;;;;;;11.23;100.00;101491.97;5246837;28;19932;-75
2023/04/25 08:43:41;;;;;;;;;;;;;;;11.23;100.00;101492.81;5248404;28;19912;-73
2023/04/25 08:46:12;;;;;;;;;;;;;;;11.15;100.00;101498.16;5247366;28;19920;-73
2023/04/25 08:48:44;;;;;;;;;;;;;;;11.02;100.00;101498.50;5246545;28;19904;-73
2023/04/25 08:51:20;;;;;;;;;;;;;;;10.70;100.00;101508.94;5246308;28;20009;-73
2023/04/25 08:53:51;;;;;;;;;;;;;;;10.39;100.00;101503.84;5234607;28;19920;-73
2023/04/25 08:56:23;;;;;;;;;;;;;;;10.18;100.00;101503.22;5246205;28;19916;-73
2023/04/25 08:58:54;;;;;;;;;;;;;;;10.02;100.00;101510.06;5246874;28;19923;-73
2023/04/25 09:01:25;;;;;;;;;;;;;;;9.78;100.00;101515.91;5245916;28;20407;-73
2023/04/25 09:03:57;;;;;;;;;;;;;;;9.65;100.00;101511.88;5246614;28;19912;-73
2023/04/25 09:06:28;;;;;;;;;;;;;;;9.49;100.00;101524.03;5246142;28;20435;-73
2023/04/25 09:09:16;;;;;;;;;;;;;;;9.26;100.00;101533.31;5247263;28;20015;-73
2023/04/25 09:11:46;;;;;;;;;;;;;;;8.64;100.00;101542.53;5246389;28;19913;-75
2023/04/25 09:14:20;;;;;;;;;;;;;;;8.31;100.00;101547.16;5247417;28;19918;-75
2023/04/25 09:17:09;;;;;;;;;;;;;;;8.23;100.00;101547.84;5243849;28;19920;-75
2023/04/25 09:19:40;;;;;;;;;;;;;;;8.21;100.00;101556.97;5246563;28;19959;-75
2023/04/25 09:22:10;;;;;;;;;;;;;;;8.15;100.00;101562.88;5246795;28;20108;-75
2023/04/25 09:24:43;;;;;;;;;;;;;;;8.04;100.00;101558.44;5247149;28;20285;-75
2023/04/25 09:27:18;;;;;;;;;;;;;;;7.98;100.00;101558.94;5247289;28;19913;-75
2023/04/25 09:29:55;;;;;;;;;;;;;;;7.98;100.00;101569.63;5247153;28;20341;-75
2023/04/25 09:32:26;;;;;;;;;;;;;;;8.09;100.00;101563.41;5247344;28;19999;-75
2023/04/25 09:34:57;;;;;;;;;;;;;;;8.91;100.00;101561.47;5247179;28;20006;-76
2023/04/25 09:37:29;;;;;;;;;;;;;;;9.96;100.00;101566.94;5245721;28;19923;-76
2023/04/25 09:40:02;;;;;;;;;;;;;;;10.81;100.00;101571.28;5246209;28;19916;-75
2023/04/25 09:42:34;;;;;;;;;;;;;;;11.50;100.00;101564.44;5245373;28;19920;-75
2023/04/25 09:45:05;;;;;;;;;;;;;;;12.13;100.00;101568.78;5246747;28;19913;-75
2023/04/25 09:47:37;;;;;;;;;;;;;;;13.11;100.00;101572.72;5245533;28;20294;-76
2023/04/25 09:50:24;;;;;;;;;;;;;;;13.00;100.00;101580.25;5246032;28;19913;-73
2023/04/25 09:53:05;;;;;;;;;;;;;;;13.04;100.00;101579.75;5246865;28;19916;-73
2023/04/25 09:55:36;;;;;;;;;;;;;;;13.25;100.00;101575.78;5246706;28;20361;-73
2023/04/25 09:58:08;;;;;;;;;;;;;;;13.20;100.00;101584.34;5245344;28;19918;-73
2023/04/25 10:00:38;;;;;;;;;;;;;;;13.53;100.00;101585.28;5245943;28;19920;-73
2023/04/25 10:03:09;;;;;;;;;;;;;;;14.28;100.00;101581.50;5246293;28;19913;-73
2023/04/25 10:05:41;;;;;;;;;;;;;;;14.48;100.00;101586.34;5246459;28;19916;-74
2023/04/25 10:08:12;;;;;;;;;;;;;;;14.80;100.00;101583.69;5245378;28;20430;-73
2023/04/25 10:10:42;;;;;;;;;;;;;;;14.86;100.00;101589.25;5245565;28;19916;-74
2023/04/25 10:13:14;;;;;;;;;;;;;;;14.02;100.00;101587.13;5246361;28;19948;-73
2023/04/25 10:15:45;;;;;;;;;;;;;;;13.89;100.00;101582.22;5245645;28;20439;-74
2023/04/25 10:18:18;;;;;;;;;;;;;;;13.61;100.00;101587.16;5245136;28;19916;-74
2023/04/25 10:20:48;;;;;;;;;;;;;;;13.66;100.00;101582.09;5244327;28;20365;-74
2023/04/25 10:23:19;;;;;;;;;;;;;;;14.05;100.00;101584.06;5245049;28;19970;-74
2023/04/25 10:25:51;;;;;;;;;;;;;;;14.64;100.00;101587.31;5245647;28;19916;-74
2023/04/25 10:28:21;;;;;;;;;;;;;;;14.95;100.00;101588.16;5244338;28;19917;-73
2023/04/25 10:31:10;;;;;;;;;;;;;;;14.24;100.00;101589.94;5244967;28;19966;-73
2023/04/25 10:33:42;;;;;;;;;;;;;;;13.58;100.00;101585.63;5245949;28;19913;-73
2023/04/25 10:36:14;;;;;;;;;;;;;;;12.97;100.00;101586.81;5245083;28;20006;-73
2023/04/25 10:38:46;;;;;;;;;;;;;;;12.77;100.00;101577.34;5243923;28;19917;-73
2023/04/25 10:41:18;;;;;;;;;;;;;;;12.41;100.00;101583.75;5244891;28;19913;-73
2023/04/25 10:43:50;;;;;;;;;;;;;;;12.01;100.00;101589.72;5244258;28;19955;-73
2023/04/25 10:46:23;;;;;;;;;;;;;;;11.76;100.00;101583.28;5244663;28;20001;-73
2023/04/25 10:48:55;;;;;;;;;;;;;;;12.29;100.00;101581.47;5245237;28;19912;-74
2023/04/25 10:51:27;;;;;;;;;;;;;;;12.78;100.00;101579.03;5244679;28;19966;-73
2023/04/25 10:53:59;;;;;;;;;;;;;;;13.62;100.00;101561.88;5245513;28;19920;-74
2023/04/25 10:56:40;;;;;;;;;;;;;;;13.57;100.00;101581.22;5243775;28;20148;-73
2023/04/25 10:59:10;;;;;;;;;;;;;;;13.38;100.00;101589.63;5245144;28;20007;-73
2023/04/25 11:01:43;;;;;;;;;;;;;;;12.68;100.00;101598.00;5244632;28;20046;-74
2023/04/25 11:04:25;;;;;;;;;;;;;;;12.04;100.00;101586.69;5244427;28;20377;-73
2023/04/25 11:07:12;;;;;;;;;;;;;;;11.62;100.00;101603.50;5243832;28;19912;-73
2023/04/25 11:09:45;;;;;;;;;;;;;;;11.21;100.00;101598.75;5243592;28;19919;-73
2023/04/25 11:12:16;;;;;;;;;;;;;;;10.79;100.00;101601.94;5245193;28;19912;-73
2023/04/25 11:14:47;;;;;;;;;;;;;;;10.16;100.00;101591.88;5244936;28;20054;-73
2023/04/25 11:17:17;;;;;;;;;;;;;;;9.95;100.00;101600.09;5243367;28;20443;-73
2023/04/25 11:19:48;;;;;;;;;;;;;;;9.69;100.00;101605.22;5244546;28;20175;-73
2023/04/25 11:22:21;;;;;;;;;;;;;;;9.50;100.00;101591.81;5243298;28;19966;-73
2023/04/25 11:24:51;;;;;;;;;;;;;;;9.44;100.00;101601.28;5246260;28;19920;-73
2023/04/25 11:27:22;;;;;;;;;;;;;;;9.56;100.00;101607.31;5244306;28;20297;-73
2023/04/25 11:29:52;;;;;;;;;;;;;;;9.66;100.00;101608.16;5243360;28;19916;-73
2023/04/25 11:32:23;;;;;;;;;;;;;;;9.77;100.00;101607.16;5245034;28;19913;-73
2023/04/25 11:34:53;;;;;;;;;;;;;;;10.01;100.00;101598.66;5243802;28;19919;-73
2023/04/25 11:37:28;;;;;;;;;;;;;;;10.54;100.00;101601.66;5243267;28;20274;-73
2023/04/25 11:39:58;;;;;;;;;;;;;;;11.26;100.00;101610.72;5243236;28;19920;-73
2023/04/25 11:42:30;;;;;;;;;;;;;;;11.51;100.00;101602.91;5244636;28;19912;-73
2023/04/25 11:45:00;;;;;;;;;;;;;;;12.15;100.00;101589.16;5244988;28;19912;-73
2023/04/25 11:47:31;;;;;;;;;;;;;;;12.58;100.00;101616.13;5242918;28;19916;-73
2023/04/25 11:50:03;;;;;;;;;;;;;;;13.04;100.00;101613.94;5226270;28;20308;-74
2023/04/25 11:52:44;;;;;;;;;;;;;;;13.38;100.00;101612.03;5243444;28;20433;-73
2023/04/25 11:55:16;;;;;;;;;;;;;;;13.62;100.00;101607.69;5244694;28;20534;-74
2023/04/25 11:57:50;;;;;;;;;;;;;;;13.66;100.00;101603.66;5241731;28;20015;-74
2023/04/25 12:00:21;;;;;;;;;;;;;;;13.50;100.00;101611.72;5230865;28;19956;-73
2023/04/25 12:02:53;;;;;;;;;;;;;;;13.04;100.00;101612.09;5244209;28;20003;-73
2023/04/25 12:05:25;;;;;;;;;;;;;;;13.06;100.00;101612.78;5243429;28;19912;-73
2023/04/25 12:07:55;;;;;;;;;;;;;;;13.58;100.00;101611.72;5242539;28;19912;-74
2023/04/25 12:10:25;;;;;;;;;;;;;;;13.62;100.00;101618.47;5243716;28;19927;-73
2023/04/25 12:12:56;;;;;;;;;;;;;;;13.19;100.00;101623.91;5244203;28;19919;-73
2023/04/25 12:15:26;;;;;;;;;;;;;;;12.40;100.00;101626.97;5244392;28;19913;-73
2023/04/25 12:17:57;;;;;;;;;;;;;;;11.43;100.00;101630.50;5242609;28;19917;-73
2023/04/25 12:20:27;;;;;;;;;;;;;;;11.15;100.00;101627.88;5243700;28;20385;-73
2023/04/25 12:22:57;;;;;;;;;;;;;;;10.96;100.00;101628.00;5243272;28;19923;-73
2023/04/25 12:25:47;;;;;;;;;;;;;;;10.84;100.00;101632.72;5244151;28;19912;-73
2023/04/25 12:28:19;;;;;;;;;;;;;;;10.93;100.00;101630.97;5242999;28;19917;-73
2023/04/25 12:31:05;;;;;;;;;;;;;;;11.39;100.00;101627.28;5243301;28;19920;-73
2023/04/25 12:33:36;;;;;;;;;;;;;;;12.34;100.00;101619.50;5242956;28;20288;-74
2023/04/25 12:36:08;;;;;;;;;;;;;;;13.21;100.00;101619.25;5243938;28;20016;-74
2023/04/25 12:38:39;;;;;;;;;;;;;;;13.62;100.00;101622.00;5242500;28;19920;-74
2023/04/25 12:41:10;;;;;;;;;;;;;;;13.47;100.00;101629.91;5242367;28;19916;-74
2023/04/25 12:43:40;;;;;;;;;;;;;;;13.33;100.00;101635.09;5243749;28;20005;-74
2023/04/25 12:46:11;;;;;;;;;;;;;;;12.78;100.00;101649.88;5243877;28;19919;-73
2023/04/25 12:48:41;;;;;;;;;;;;;;;11.85;100.00;101646.06;5242773;28;19962;-74
2023/04/25 12:51:12;;;;;;;;;;;;;;;11.60;100.00;101645.81;5243235;28;20277;-74
2023/04/25 12:53:42;;;;;;;;;;;;;;;11.53;100.00;101642.03;5247902;28;20373;-74
2023/04/25 12:56:13;;;;;;;;;;;;;;;11.68;100.00;101645.88;5247351;28;19920;-74